sensor_id;sensor_type;location;lat;lon;timestamp;pressure;altitude;pressure_sealevel;temperature
10058;BMP180;5068;51.286;7.518;2022-08-21T00:00:33;99545.00;;;17.00
10058;BMP180;5068;51.286;7.518;2022-08-21T00:02:25;99551.00;;;16.90
10058;BMP180;5068;51.286;7.518;2022-08-21T00:04:06;99549.00;;;16.90
10058;BMP180;5068;51.286;7.518;2022-08-21T00:05:50;99549.00;;;16.80
10058;BMP180;5068;51.286;7.518;2022-08-21T00:07:35;99549.00;;;16.80
10058;BMP180;5068;51.286;7.518;2022-08-21T00:09:12;99548.00;;;16.80
10058;BMP180;5068;51.286;7.518;2022-08-21T00:10:47;99554.00;;;16.70
10058;BMP180;5068;51.286;7.518;2022-08-21T00:12:22;99551.00;;;16.70
10058;BMP180;5068;51.286;7.518;2022-08-21T00:13:58;99547.00;;;16.70
10058;BMP180;5068;51.286;7.518;2022-08-21T00:15:40;99549.00;;;16.70
10058;BMP180;5068;51.286;7.518;2022-08-21T00:17:19;99550.00;;;16.70
10058;BMP180;5068;51.286;7.518;2022-08-21T00:18:54;99547.00;;;16.60
10058;BMP180;5068;51.286;7.518;2022-08-21T00:20:33;99537.00;;;16.60
10058;BMP180;5068;51.286;7.518;2022-08-21T00:22:10;99542.00;;;16.60
10058;BMP180;5068;51.286;7.518;2022-08-21T00:23:45;99536.00;;;16.60
10058;BMP180;5068;51.286;7.518;2022-08-21T00:25:20;99537.00;;;16.60
10058;BMP180;5068;51.286;7.518;2022-08-21T00:27:00;99535.00;;;16.60
10058;BMP180;5068;51.286;7.518;2022-08-21T00:28:40;99530.00;;;16.60
10058;BMP180;5068;51.286;7.518;2022-08-21T00:30:19;99536.00;;;16.50
10058;BMP180;5068;51.286;7.518;2022-08-21T00:31:54;99530.00;;;16.40
10058;BMP180;5068;51.286;7.518;2022-08-21T00:33:34;99531.00;;;16.40
10058;BMP180;5068;51.286;7.518;2022-08-21T00:35:10;99532.00;;;16.30
10058;BMP180;5068;51.286;7.518;2022-08-21T00:36:50;99532.00;;;16.30
10058;BMP180;5068;51.286;7.518;2022-08-21T00:38:23;99535.00;;;16.30
10058;BMP180;5068;51.286;7.518;2022-08-21T00:39:59;99523.00;;;16.20
10058;BMP180;5068;51.286;7.518;2022-08-21T00:41:33;99524.00;;;16.20
10058;BMP180;5068;51.286;7.518;2022-08-21T00:43:13;99521.00;;;16.20
10058;BMP180;5068;51.286;7.518;2022-08-21T00:44:50;99522.00;;;16.20
10058;BMP180;5068;51.286;7.518;2022-08-21T00:46:25;99524.00;;;16.20
10058;BMP180;5068;51.286;7.518;2022-08-21T00:48:00;99528.00;;;16.20
10058;BMP180;5068;51.286;7.518;2022-08-21T00:49:39;99531.00;;;16.20
10058;BMP180;5068;51.286;7.518;2022-08-21T00:51:21;99528.00;;;16.20
10058;BMP180;5068;51.286;7.518;2022-08-21T00:52:59;99529.00;;;16.10
10058;BMP180;5068;51.286;7.518;2022-08-21T00:54:33;99525.00;;;16.10
10058;BMP180;5068;51.286;7.518;2022-08-21T00:56:13;99514.00;;;16.10
10058;BMP180;5068;51.286;7.518;2022-08-21T00:57:55;99508.00;;;16.10
10058;BMP180;5068;51.286;7.518;2022-08-21T00:59:37;99524.00;;;16.10
10058;BMP180;5068;51.286;7.518;2022-08-21T01:01:15;99517.00;;;16.10
10058;BMP180;5068;51.286;7.518;2022-08-21T01:03:04;99513.00;;;16.10
10058;BMP180;5068;51.286;7.518;2022-08-21T01:04:45;99514.00;;;16.10
10058;BMP180;5068;51.286;7.518;2022-08-21T01:06:20;99514.00;;;16.10
10058;BMP180;5068;51.286;7.518;2022-08-21T01:07:59;99512.00;;;16.10
10058;BMP180;5068;51.286;7.518;2022-08-21T01:09:37;99509.00;;;16.00
10058;BMP180;5068;51.286;7.518;2022-08-21T01:11:16;99508.00;;;16.00
10058;BMP180;5068;51.286;7.518;2022-08-21T01:12:57;99508.00;;;16.00
10058;BMP180;5068;51.286;7.518;2022-08-21T01:14:36;99513.00;;;15.90
10058;BMP180;5068;51.286;7.518;2022-08-21T01:16:20;99505.00;;;15.90
10058;BMP180;5068;51.286;7.518;2022-08-21T01:18:10;99505.00;;;15.80
10058;BMP180;5068;51.286;7.518;2022-08-21T01:19:48;99508.00;;;15.80
10058;BMP180;5068;51.286;7.518;2022-08-21T01:21:26;99514.00;;;15.80
10058;BMP180;5068;51.286;7.518;2022-08-21T01:23:03;99505.00;;;15.70
10058;BMP180;5068;51.286;7.518;2022-08-21T01:24:39;99514.00;;;15.70
10058;BMP180;5068;51.286;7.518;2022-08-21T01:26:16;99510.00;;;15.70
10058;BMP180;5068;51.286;7.518;2022-08-21T01:27:55;99517.00;;;15.70
10058;BMP180;5068;51.286;7.518;2022-08-21T01:29:38;99520.00;;;15.70
10058;BMP180;5068;51.286;7.518;2022-08-21T01:31:15;99516.00;;;15.80
10058;BMP180;5068;51.286;7.518;2022-08-21T01:32:59;99516.00;;;15.80
10058;BMP180;5068;51.286;7.518;2022-08-21T01:34:40;99513.00;;;15.80
10058;BMP180;5068;51.286;7.518;2022-08-21T01:36:19;99507.00;;;15.80
10058;BMP180;5068;51.286;7.518;2022-08-21T01:37:57;99504.00;;;15.80
10058;BMP180;5068;51.286;7.518;2022-08-21T01:39:32;99512.00;;;15.80
10058;BMP180;5068;51.286;7.518;2022-08-21T01:41:06;99509.00;;;15.80
10058;BMP180;5068;51.286;7.518;2022-08-21T01:42:50;99514.00;;;15.80
10058;BMP180;5068;51.286;7.518;2022-08-21T01:44:26;99513.00;;;15.80
10058;BMP180;5068;51.286;7.518;2022-08-21T01:46:02;99521.00;;;15.80
10058;BMP180;5068;51.286;7.518;2022-08-21T01:47:37;99524.00;;;15.80
10058;BMP180;5068;51.286;7.518;2022-08-21T01:49:12;99519.00;;;15.80
10058;BMP180;5068;51.286;7.518;2022-08-21T01:50:49;99512.00;;;15.80
10058;BMP180;5068;51.286;7.518;2022-08-21T01:52:29;99516.00;;;15.80
10058;BMP180;5068;51.286;7.518;2022-08-21T01:54:10;99510.00;;;15.80
10058;BMP180;5068;51.286;7.518;2022-08-21T01:55:43;99515.00;;;15.80
10058;BMP180;5068;51.286;7.518;2022-08-21T01:57:16;99505.00;;;15.80
10058;BMP180;5068;51.286;7.518;2022-08-21T01:58:52;99509.00;;;15.80
10058;BMP180;5068;51.286;7.518;2022-08-21T02:00:26;99505.00;;;15.80
10058;BMP180;5068;51.286;7.518;2022-08-21T02:02:03;99501.00;;;15.80
10058;BMP180;5068;51.286;7.518;2022-08-21T02:03:41;99510.00;;;15.80
10058;BMP180;5068;51.286;7.518;2022-08-21T02:05:20;99500.00;;;15.80
10058;BMP180;5068;51.286;7.518;2022-08-21T02:06:56;99515.00;;;15.80
10058;BMP180;5068;51.286;7.518;2022-08-21T02:08:34;99513.00;;;15.80
10058;BMP180;5068;51.286;7.518;2022-08-21T02:10:12;99504.00;;;15.90
10058;BMP180;5068;51.286;7.518;2022-08-21T02:11:48;99502.00;;;15.90
10058;BMP180;5068;51.286;7.518;2022-08-21T02:13:23;99502.00;;;15.90
10058;BMP180;5068;51.286;7.518;2022-08-21T02:14:59;99493.00;;;15.90
10058;BMP180;5068;51.286;7.518;2022-08-21T02:16:34;99497.00;;;15.90
10058;BMP180;5068;51.286;7.518;2022-08-21T02:18:13;99490.00;;;16.00
10058;BMP180;5068;51.286;7.518;2022-08-21T02:19:50;99490.00;;;16.00
10058;BMP180;5068;51.286;7.518;2022-08-21T02:21:23;99497.00;;;16.00
10058;BMP180;5068;51.286;7.518;2022-08-21T02:22:59;99494.00;;;16.00
10058;BMP180;5068;51.286;7.518;2022-08-21T02:24:39;99491.00;;;16.00
10058;BMP180;5068;51.286;7.518;2022-08-21T02:26:29;99492.00;;;16.00
10058;BMP180;5068;51.286;7.518;2022-08-21T02:28:07;99487.00;;;16.00
10058;BMP180;5068;51.286;7.518;2022-08-21T02:29:40;99488.00;;;16.10
10058;BMP180;5068;51.286;7.518;2022-08-21T02:31:13;99490.00;;;16.10
10058;BMP180;5068;51.286;7.518;2022-08-21T02:32:47;99487.00;;;16.00
10058;BMP180;5068;51.286;7.518;2022-08-21T02:34:21;99487.00;;;16.00
10058;BMP180;5068;51.286;7.518;2022-08-21T02:36:01;99491.00;;;16.00
10058;BMP180;5068;51.286;7.518;2022-08-21T02:37:34;99489.00;;;16.00
10058;BMP180;5068;51.286;7.518;2022-08-21T02:39:09;99479.00;;;16.00
10058;BMP180;5068;51.286;7.518;2022-08-21T02:40:46;99482.00;;;16.00
10058;BMP180;5068;51.286;7.518;2022-08-21T02:42:24;99480.00;;;16.00
10058;BMP180;5068;51.286;7.518;2022-08-21T02:43:59;99486.00;;;16.00
10058;BMP180;5068;51.286;7.518;2022-08-21T02:45:37;99479.00;;;16.00
10058;BMP180;5068;51.286;7.518;2022-08-21T02:47:11;99490.00;;;16.00
10058;BMP180;5068;51.286;7.518;2022-08-21T02:48:46;99481.00;;;15.90
10058;BMP180;5068;51.286;7.518;2022-08-21T02:50:22;99478.00;;;15.90
10058;BMP180;5068;51.286;7.518;2022-08-21T02:52:00;99484.00;;;15.90
10058;BMP180;5068;51.286;7.518;2022-08-21T02:53:35;99480.00;;;15.90
10058;BMP180;5068;51.286;7.518;2022-08-21T02:55:09;99477.00;;;15.90
10058;BMP180;5068;51.286;7.518;2022-08-21T02:56:42;99476.00;;;15.80
10058;BMP180;5068;51.286;7.518;2022-08-21T02:58:22;99477.00;;;15.80
10058;BMP180;5068;51.286;7.518;2022-08-21T02:59:56;99472.00;;;15.80
10058;BMP180;5068;51.286;7.518;2022-08-21T03:01:34;99469.00;;;15.80
10058;BMP180;5068;51.286;7.518;2022-08-21T03:03:10;99470.00;;;15.80
10058;BMP180;5068;51.286;7.518;2022-08-21T03:04:45;99473.00;;;15.90
10058;BMP180;5068;51.286;7.518;2022-08-21T03:06:22;99473.00;;;15.90
10058;BMP180;5068;51.286;7.518;2022-08-21T03:08:03;99468.00;;;15.90
10058;BMP180;5068;51.286;7.518;2022-08-21T03:09:41;99469.00;;;15.90
10058;BMP180;5068;51.286;7.518;2022-08-21T03:11:29;99467.00;;;15.90
10058;BMP180;5068;51.286;7.518;2022-08-21T03:13:06;99469.00;;;15.80
10058;BMP180;5068;51.286;7.518;2022-08-21T03:14:41;99467.00;;;15.80
10058;BMP180;5068;51.286;7.518;2022-08-21T03:16:15;99466.00;;;15.80
10058;BMP180;5068;51.286;7.518;2022-08-21T03:17:51;99476.00;;;15.80
10058;BMP180;5068;51.286;7.518;2022-08-21T03:19:23;99471.00;;;15.70
10058;BMP180;5068;51.286;7.518;2022-08-21T03:20:57;99472.00;;;15.70
10058;BMP180;5068;51.286;7.518;2022-08-21T03:22:37;99469.00;;;15.70
10058;BMP180;5068;51.286;7.518;2022-08-21T03:24:15;99471.00;;;15.70
10058;BMP180;5068;51.286;7.518;2022-08-21T03:25:51;99472.00;;;15.60
10058;BMP180;5068;51.286;7.518;2022-08-21T03:27:28;99474.00;;;15.60
10058;BMP180;5068;51.286;7.518;2022-08-21T03:29:05;99470.00;;;15.60
10058;BMP180;5068;51.286;7.518;2022-08-21T03:30:44;99473.00;;;15.50
10058;BMP180;5068;51.286;7.518;2022-08-21T03:32:18;99474.00;;;15.50
10058;BMP180;5068;51.286;7.518;2022-08-21T03:33:52;99464.00;;;15.50
10058;BMP180;5068;51.286;7.518;2022-08-21T03:35:27;99466.00;;;15.40
10058;BMP180;5068;51.286;7.518;2022-08-21T03:37:01;99470.00;;;15.40
10058;BMP180;5068;51.286;7.518;2022-08-21T03:38:38;99466.00;;;15.40
10058;BMP180;5068;51.286;7.518;2022-08-21T03:40:18;99471.00;;;15.40
10058;BMP180;5068;51.286;7.518;2022-08-21T03:41:52;99464.00;;;15.30
10058;BMP180;5068;51.286;7.518;2022-08-21T03:43:28;99464.00;;;15.30
10058;BMP180;5068;51.286;7.518;2022-08-21T03:45:04;99465.00;;;15.30
10058;BMP180;5068;51.286;7.518;2022-08-21T03:46:40;99468.00;;;15.30
10058;BMP180;5068;51.286;7.518;2022-08-21T03:48:16;99469.00;;;15.30
10058;BMP180;5068;51.286;7.518;2022-08-21T03:49:50;99479.00;;;15.30
10058;BMP180;5068;51.286;7.518;2022-08-21T03:51:26;99469.00;;;15.20
10058;BMP180;5068;51.286;7.518;2022-08-21T03:53:00;99480.00;;;15.20
10058;BMP180;5068;51.286;7.518;2022-08-21T03:54:38;99468.00;;;15.20
10058;BMP180;5068;51.286;7.518;2022-08-21T03:56:14;99475.00;;;15.20
10058;BMP180;5068;51.286;7.518;2022-08-21T03:57:50;99479.00;;;15.20
10058;BMP180;5068;51.286;7.518;2022-08-21T03:59:25;99473.00;;;15.20
10058;BMP180;5068;51.286;7.518;2022-08-21T04:01:02;99474.00;;;15.20
10058;BMP180;5068;51.286;7.518;2022-08-21T04:02:43;99473.00;;;15.20
10058;BMP180;5068;51.286;7.518;2022-08-21T04:04:19;99478.00;;;15.20
10058;BMP180;5068;51.286;7.518;2022-08-21T04:05:56;99471.00;;;15.10
10058;BMP180;5068;51.286;7.518;2022-08-21T04:07:31;99475.00;;;15.10
10058;BMP180;5068;51.286;7.518;2022-08-21T04:09:05;99478.00;;;15.10
10058;BMP180;5068;51.286;7.518;2022-08-21T04:10:48;99474.00;;;15.10
10058;BMP180;5068;51.286;7.518;2022-08-21T04:12:25;99477.00;;;15.10
10058;BMP180;5068;51.286;7.518;2022-08-21T04:13:59;99477.00;;;15.10
10058;BMP180;5068;51.286;7.518;2022-08-21T04:15:38;99481.00;;;15.10
10058;BMP180;5068;51.286;7.518;2022-08-21T04:17:15;99481.00;;;15.10
10058;BMP180;5068;51.286;7.518;2022-08-21T04:18:51;99479.00;;;15.10
10058;BMP180;5068;51.286;7.518;2022-08-21T04:20:26;99484.00;;;15.10
10058;BMP180;5068;51.286;7.518;2022-08-21T04:21:59;99481.00;;;15.10
10058;BMP180;5068;51.286;7.518;2022-08-21T04:23:34;99490.00;;;15.10
10058;BMP180;5068;51.286;7.518;2022-08-21T04:25:08;99494.00;;;15.10
10058;BMP180;5068;51.286;7.518;2022-08-21T04:26:44;99491.00;;;15.10
10058;BMP180;5068;51.286;7.518;2022-08-21T04:28:17;99490.00;;;15.10
10058;BMP180;5068;51.286;7.518;2022-08-21T04:29:51;99495.00;;;15.10
10058;BMP180;5068;51.286;7.518;2022-08-21T04:31:24;99491.00;;;15.10
10058;BMP180;5068;51.286;7.518;2022-08-21T04:32:58;99493.00;;;15.10
10058;BMP180;5068;51.286;7.518;2022-08-21T04:34:33;99487.00;;;15.00
10058;BMP180;5068;51.286;7.518;2022-08-21T04:36:08;99489.00;;;15.00
10058;BMP180;5068;51.286;7.518;2022-08-21T04:37:42;99497.00;;;15.00
10058;BMP180;5068;51.286;7.518;2022-08-21T04:39:16;99493.00;;;15.00
10058;BMP180;5068;51.286;7.518;2022-08-21T04:40:52;99500.00;;;14.90
10058;BMP180;5068;51.286;7.518;2022-08-21T04:42:27;99499.00;;;14.90
10058;BMP180;5068;51.286;7.518;2022-08-21T04:44:01;99493.00;;;14.90
10058;BMP180;5068;51.286;7.518;2022-08-21T04:45:42;99493.00;;;14.90
10058;BMP180;5068;51.286;7.518;2022-08-21T04:47:18;99495.00;;;14.90
10058;BMP180;5068;51.286;7.518;2022-08-21T04:48:52;99488.00;;;14.90
10058;BMP180;5068;51.286;7.518;2022-08-21T04:50:36;99486.00;;;14.90
10058;BMP180;5068;51.286;7.518;2022-08-21T04:52:15;99502.00;;;14.90
10058;BMP180;5068;51.286;7.518;2022-08-21T04:53:54;99506.00;;;14.90
10058;BMP180;5068;51.286;7.518;2022-08-21T04:55:29;99494.00;;;14.90
10058;BMP180;5068;51.286;7.518;2022-08-21T04:57:08;99500.00;;;14.90
10058;BMP180;5068;51.286;7.518;2022-08-21T04:58:42;99497.00;;;14.90
10058;BMP180;5068;51.286;7.518;2022-08-21T05:00:19;99501.00;;;14.90
10058;BMP180;5068;51.286;7.518;2022-08-21T05:01:58;99494.00;;;14.90
10058;BMP180;5068;51.286;7.518;2022-08-21T05:03:34;99491.00;;;14.80
10058;BMP180;5068;51.286;7.518;2022-08-21T05:05:10;99496.00;;;14.80
10058;BMP180;5068;51.286;7.518;2022-08-21T05:06:49;99499.00;;;14.70
10058;BMP180;5068;51.286;7.518;2022-08-21T05:08:29;99491.00;;;14.70
10058;BMP180;5068;51.286;7.518;2022-08-21T05:10:06;99496.00;;;14.70
10058;BMP180;5068;51.286;7.518;2022-08-21T05:11:41;99500.00;;;14.70
10058;BMP180;5068;51.286;7.518;2022-08-21T05:13:15;99504.00;;;14.70
10058;BMP180;5068;51.286;7.518;2022-08-21T05:14:49;99502.00;;;14.70
10058;BMP180;5068;51.286;7.518;2022-08-21T05:16:25;99498.00;;;14.70
10058;BMP180;5068;51.286;7.518;2022-08-21T05:18:09;99492.00;;;14.70
10058;BMP180;5068;51.286;7.518;2022-08-21T05:19:45;99498.00;;;14.70
10058;BMP180;5068;51.286;7.518;2022-08-21T05:21:21;99492.00;;;14.70
10058;BMP180;5068;51.286;7.518;2022-08-21T05:23:05;99499.00;;;14.70
10058;BMP180;5068;51.286;7.518;2022-08-21T05:24:44;99503.00;;;14.70
10058;BMP180;5068;51.286;7.518;2022-08-21T05:26:19;99495.00;;;14.70
10058;BMP180;5068;51.286;7.518;2022-08-21T05:27:53;99497.00;;;14.70
10058;BMP180;5068;51.286;7.518;2022-08-21T05:29:29;99499.00;;;14.70
10058;BMP180;5068;51.286;7.518;2022-08-21T05:31:05;99498.00;;;14.70
10058;BMP180;5068;51.286;7.518;2022-08-21T05:32:43;99498.00;;;14.70
10058;BMP180;5068;51.286;7.518;2022-08-21T05:34:21;99500.00;;;14.70
10058;BMP180;5068;51.286;7.518;2022-08-21T05:35:55;99501.00;;;14.70
10058;BMP180;5068;51.286;7.518;2022-08-21T05:37:29;99507.00;;;14.70
10058;BMP180;5068;51.286;7.518;2022-08-21T05:39:07;99504.00;;;14.70
10058;BMP180;5068;51.286;7.518;2022-08-21T05:40:41;99513.00;;;14.70
10058;BMP180;5068;51.286;7.518;2022-08-21T05:42:15;99505.00;;;14.70
10058;BMP180;5068;51.286;7.518;2022-08-21T05:43:50;99502.00;;;14.70
10058;BMP180;5068;51.286;7.518;2022-08-21T05:45:32;99494.00;;;14.80
10058;BMP180;5068;51.286;7.518;2022-08-21T05:47:14;99497.00;;;14.80
10058;BMP180;5068;51.286;7.518;2022-08-21T05:48:48;99495.00;;;14.80
10058;BMP180;5068;51.286;7.518;2022-08-21T05:50:24;99498.00;;;14.70
10058;BMP180;5068;51.286;7.518;2022-08-21T05:52:07;99506.00;;;14.80
10058;BMP180;5068;51.286;7.518;2022-08-21T05:53:42;99498.00;;;14.80
10058;BMP180;5068;51.286;7.518;2022-08-21T05:55:17;99506.00;;;14.80
10058;BMP180;5068;51.286;7.518;2022-08-21T05:56:56;99504.00;;;14.80
10058;BMP180;5068;51.286;7.518;2022-08-21T05:58:31;99493.00;;;14.80
10058;BMP180;5068;51.286;7.518;2022-08-21T06:00:13;99494.00;;;14.80
10058;BMP180;5068;51.286;7.518;2022-08-21T06:01:46;99492.00;;;14.90
10058;BMP180;5068;51.286;7.518;2022-08-21T06:03:23;99498.00;;;14.90
10058;BMP180;5068;51.286;7.518;2022-08-21T06:05:00;99497.00;;;14.90
10058;BMP180;5068;51.286;7.518;2022-08-21T06:06:37;99492.00;;;14.90
10058;BMP180;5068;51.286;7.518;2022-08-21T06:08:14;99486.00;;;15.00
10058;BMP180;5068;51.286;7.518;2022-08-21T06:09:52;99496.00;;;15.00
10058;BMP180;5068;51.286;7.518;2022-08-21T06:11:27;99496.00;;;15.00
10058;BMP180;5068;51.286;7.518;2022-08-21T06:13:00;99492.00;;;15.10
10058;BMP180;5068;51.286;7.518;2022-08-21T06:14:41;99488.00;;;15.10
10058;BMP180;5068;51.286;7.518;2022-08-21T06:16:17;99488.00;;;15.10
10058;BMP180;5068;51.286;7.518;2022-08-21T06:17:52;99492.00;;;15.20
10058;BMP180;5068;51.286;7.518;2022-08-21T06:19:26;99487.00;;;15.20
10058;BMP180;5068;51.286;7.518;2022-08-21T06:20:59;99495.00;;;15.20
10058;BMP180;5068;51.286;7.518;2022-08-21T06:22:36;99493.00;;;15.30
10058;BMP180;5068;51.286;7.518;2022-08-21T06:24:14;99494.00;;;15.30
10058;BMP180;5068;51.286;7.518;2022-08-21T06:25:47;99489.00;;;15.30
10058;BMP180;5068;51.286;7.518;2022-08-21T06:27:22;99496.00;;;15.40
10058;BMP180;5068;51.286;7.518;2022-08-21T06:28:58;99490.00;;;15.40
10058;BMP180;5068;51.286;7.518;2022-08-21T06:30:38;99486.00;;;15.50
10058;BMP180;5068;51.286;7.518;2022-08-21T06:32:13;99486.00;;;15.50
10058;BMP180;5068;51.286;7.518;2022-08-21T06:33:49;99488.00;;;15.60
10058;BMP180;5068;51.286;7.518;2022-08-21T06:35:23;99490.00;;;15.60
10058;BMP180;5068;51.286;7.518;2022-08-21T06:37:00;99486.00;;;15.70
10058;BMP180;5068;51.286;7.518;2022-08-21T06:38:36;99479.00;;;15.70
10058;BMP180;5068;51.286;7.518;2022-08-21T06:40:11;99486.00;;;15.80
10058;BMP180;5068;51.286;7.518;2022-08-21T06:41:47;99471.00;;;15.90
10058;BMP180;5068;51.286;7.518;2022-08-21T06:43:27;99483.00;;;16.00
10058;BMP180;5068;51.286;7.518;2022-08-21T06:45:13;99485.00;;;16.00
10058;BMP180;5068;51.286;7.518;2022-08-21T06:46:47;99482.00;;;16.10
10058;BMP180;5068;51.286;7.518;2022-08-21T06:48:21;99477.00;;;16.20
10058;BMP180;5068;51.286;7.518;2022-08-21T06:49:55;99472.00;;;16.20
10058;BMP180;5068;51.286;7.518;2022-08-21T06:51:36;99478.00;;;16.30
10058;BMP180;5068;51.286;7.518;2022-08-21T06:53:18;99474.00;;;16.40
10058;BMP180;5068;51.286;7.518;2022-08-21T06:54:57;99477.00;;;16.50
10058;BMP180;5068;51.286;7.518;2022-08-21T06:56:33;99478.00;;;16.60
10058;BMP180;5068;51.286;7.518;2022-08-21T06:58:09;99468.00;;;16.60
10058;BMP180;5068;51.286;7.518;2022-08-21T06:59:46;99466.00;;;16.70
10058;BMP180;5068;51.286;7.518;2022-08-21T07:01:25;99474.00;;;16.80
10058;BMP180;5068;51.286;7.518;2022-08-21T07:03:25;99465.00;;;16.90
10058;BMP180;5068;51.286;7.518;2022-08-21T07:05:02;99468.00;;;17.00
10058;BMP180;5068;51.286;7.518;2022-08-21T07:06:49;99468.00;;;17.00
10058;BMP180;5068;51.286;7.518;2022-08-21T07:08:27;99467.00;;;17.10
10058;BMP180;5068;51.286;7.518;2022-08-21T07:10:02;99468.00;;;17.20
10058;BMP180;5068;51.286;7.518;2022-08-21T07:11:36;99468.00;;;17.30
10058;BMP180;5068;51.286;7.518;2022-08-21T07:13:19;99463.00;;;17.30
10058;BMP180;5068;51.286;7.518;2022-08-21T07:14:54;99465.00;;;17.40
10058;BMP180;5068;51.286;7.518;2022-08-21T07:16:27;99470.00;;;17.50
10058;BMP180;5068;51.286;7.518;2022-08-21T07:18:01;99460.00;;;17.60
10058;BMP180;5068;51.286;7.518;2022-08-21T07:19:34;99460.00;;;17.70
10058;BMP180;5068;51.286;7.518;2022-08-21T07:21:11;99468.00;;;17.80
10058;BMP180;5068;51.286;7.518;2022-08-21T07:22:47;99471.00;;;17.90
10058;BMP180;5068;51.286;7.518;2022-08-21T07:24:20;99473.00;;;18.00
10058;BMP180;5068;51.286;7.518;2022-08-21T07:25:54;99466.00;;;18.10
10058;BMP180;5068;51.286;7.518;2022-08-21T07:27:28;99467.00;;;18.20
10058;BMP180;5068;51.286;7.518;2022-08-21T07:29:01;99462.00;;;18.30
10058;BMP180;5068;51.286;7.518;2022-08-21T07:30:40;99470.00;;;18.40
10058;BMP180;5068;51.286;7.518;2022-08-21T07:32:24;99469.00;;;18.50
10058;BMP180;5068;51.286;7.518;2022-08-21T07:34:01;99463.00;;;18.60
10058;BMP180;5068;51.286;7.518;2022-08-21T07:35:34;99466.00;;;18.70
10058;BMP180;5068;51.286;7.518;2022-08-21T07:37:12;99467.00;;;18.90
10058;BMP180;5068;51.286;7.518;2022-08-21T07:38:45;99468.00;;;19.00
10058;BMP180;5068;51.286;7.518;2022-08-21T07:40:24;99465.00;;;19.10
10058;BMP180;5068;51.286;7.518;2022-08-21T07:41:58;99465.00;;;19.20
10058;BMP180;5068;51.286;7.518;2022-08-21T07:43:41;99474.00;;;19.40
10058;BMP180;5068;51.286;7.518;2022-08-21T07:45:22;99470.00;;;19.50
10058;BMP180;5068;51.286;7.518;2022-08-21T07:46:59;99468.00;;;19.70
10058;BMP180;5068;51.286;7.518;2022-08-21T07:48:34;99466.00;;;19.80
10058;BMP180;5068;51.286;7.518;2022-08-21T07:50:08;99475.00;;;19.90
10058;BMP180;5068;51.286;7.518;2022-08-21T07:51:41;99469.00;;;20.10
10058;BMP180;5068;51.286;7.518;2022-08-21T07:53:18;99470.00;;;20.20
10058;BMP180;5068;51.286;7.518;2022-08-21T07:54:52;99475.00;;;20.30
10058;BMP180;5068;51.286;7.518;2022-08-21T07:56:30;99470.00;;;20.50
10058;BMP180;5068;51.286;7.518;2022-08-21T07:58:04;99465.00;;;20.60
10058;BMP180;5068;51.286;7.518;2022-08-21T07:59:38;99463.00;;;20.70
10058;BMP180;5068;51.286;7.518;2022-08-21T08:01:12;99468.00;;;20.80
10058;BMP180;5068;51.286;7.518;2022-08-21T08:02:50;99467.00;;;20.90
10058;BMP180;5068;51.286;7.518;2022-08-21T08:04:26;99475.00;;;21.00
10058;BMP180;5068;51.286;7.518;2022-08-21T08:06:00;99470.00;;;21.20
10058;BMP180;5068;51.286;7.518;2022-08-21T08:07:36;99477.00;;;21.30
10058;BMP180;5068;51.286;7.518;2022-08-21T08:09:12;99471.00;;;21.40
10058;BMP180;5068;51.286;7.518;2022-08-21T08:10:49;99468.00;;;21.50
10058;BMP180;5068;51.286;7.518;2022-08-21T08:12:26;99471.00;;;21.60
10058;BMP180;5068;51.286;7.518;2022-08-21T08:14:02;99474.00;;;21.70
10058;BMP180;5068;51.286;7.518;2022-08-21T08:15:41;99467.00;;;21.80
10058;BMP180;5068;51.286;7.518;2022-08-21T08:17:17;99471.00;;;21.90
10058;BMP180;5068;51.286;7.518;2022-08-21T08:18:58;99471.00;;;22.00
10058;BMP180;5068;51.286;7.518;2022-08-21T08:20:32;99467.00;;;22.10
10058;BMP180;5068;51.286;7.518;2022-08-21T08:22:16;99465.00;;;22.20
10058;BMP180;5068;51.286;7.518;2022-08-21T08:23:54;99460.00;;;22.30
10058;BMP180;5068;51.286;7.518;2022-08-21T08:25:28;99464.00;;;22.40
10058;BMP180;5068;51.286;7.518;2022-08-21T08:27:08;99464.00;;;22.60
10058;BMP180;5068;51.286;7.518;2022-08-21T08:28:43;99463.00;;;22.70
10058;BMP180;5068;51.286;7.518;2022-08-21T08:30:21;99462.00;;;22.80
10058;BMP180;5068;51.286;7.518;2022-08-21T08:31:58;99465.00;;;22.90
10058;BMP180;5068;51.286;7.518;2022-08-21T08:33:36;99471.00;;;23.00
10058;BMP180;5068;51.286;7.518;2022-08-21T08:35:14;99467.00;;;23.10
10058;BMP180;5068;51.286;7.518;2022-08-21T08:36:48;99464.00;;;23.10
10058;BMP180;5068;51.286;7.518;2022-08-21T08:38:25;99460.00;;;23.20
10058;BMP180;5068;51.286;7.518;2022-08-21T08:40:03;99462.00;;;23.30
10058;BMP180;5068;51.286;7.518;2022-08-21T08:41:37;99460.00;;;23.40
10058;BMP180;5068;51.286;7.518;2022-08-21T08:43:16;99466.00;;;23.50
10058;BMP180;5068;51.286;7.518;2022-08-21T08:44:59;99461.00;;;23.50
10058;BMP180;5068;51.286;7.518;2022-08-21T08:46:41;99467.00;;;23.60
10058;BMP180;5068;51.286;7.518;2022-08-21T08:48:39;99474.00;;;23.70
10058;BMP180;5068;51.286;7.518;2022-08-21T08:50:38;99467.00;;;23.80
10058;BMP180;5068;51.286;7.518;2022-08-21T08:52:20;99456.00;;;23.90
10058;BMP180;5068;51.286;7.518;2022-08-21T08:54:01;99466.00;;;24.00
10058;BMP180;5068;51.286;7.518;2022-08-21T08:55:39;99463.00;;;24.10
10058;BMP180;5068;51.286;7.518;2022-08-21T08:57:19;99462.00;;;24.10
10058;BMP180;5068;51.286;7.518;2022-08-21T08:59:08;99452.00;;;24.20
10058;BMP180;5068;51.286;7.518;2022-08-21T09:00:49;99461.00;;;24.20
10058;BMP180;5068;51.286;7.518;2022-08-21T09:02:23;99459.00;;;24.20
10058;BMP180;5068;51.286;7.518;2022-08-21T09:03:59;99464.00;;;24.30
10058;BMP180;5068;51.286;7.518;2022-08-21T09:05:44;99468.00;;;24.40
10058;BMP180;5068;51.286;7.518;2022-08-21T09:07:35;99455.00;;;24.40
10058;BMP180;5068;51.286;7.518;2022-08-21T09:09:29;99455.00;;;24.40
10058;BMP180;5068;51.286;7.518;2022-08-21T09:11:16;99458.00;;;24.50
10058;BMP180;5068;51.286;7.518;2022-08-21T09:13:04;99448.00;;;24.50
10058;BMP180;5068;51.286;7.518;2022-08-21T09:15:06;99453.00;;;24.50
10058;BMP180;5068;51.286;7.518;2022-08-21T09:16:53;99448.00;;;24.50
10058;BMP180;5068;51.286;7.518;2022-08-21T09:18:46;99452.00;;;24.50
10058;BMP180;5068;51.286;7.518;2022-08-21T09:20:39;99450.00;;;24.50
10058;BMP180;5068;51.286;7.518;2022-08-21T09:22:30;99449.00;;;24.50
10058;BMP180;5068;51.286;7.518;2022-08-21T09:24:25;99450.00;;;24.60
10058;BMP180;5068;51.286;7.518;2022-08-21T09:26:13;99452.00;;;24.60
10058;BMP180;5068;51.286;7.518;2022-08-21T09:27:48;99443.00;;;24.70
10058;BMP180;5068;51.286;7.518;2022-08-21T09:29:27;99444.00;;;24.70
10058;BMP180;5068;51.286;7.518;2022-08-21T09:31:08;99453.00;;;24.80